sensor_id;sensor_type;location;lat;lon;timestamp;P1;durP1;ratioP1;P2;durP2;ratioP2
41077;SDS011;26823;42.662;23.352;2023-05-10T00:00:32;6.97;;;6.10;;
41077;SDS011;26823;42.662;23.352;2023-05-10T00:02:58;7.68;;;6.75;;
41077;SDS011;26823;42.662;23.352;2023-05-10T00:05:23;6.60;;;5.90;;
41077;SDS011;26823;42.662;23.352;2023-05-10T00:07:48;7.97;;;6.70;;
41077;SDS011;26823;42.662;23.352;2023-05-10T00:10:14;9.02;;;6.18;;
41077;SDS011;26823;42.662;23.352;2023-05-10T00:12:39;9.82;;;7.20;;
41077;SDS011;26823;42.662;23.352;2023-05-10T00:15:05;7.90;;;7.10;;
41077;SDS011;26823;42.662;23.352;2023-05-10T00:17:31;8.07;;;6.40;;
41077;SDS011;26823;42.662;23.352;2023-05-10T00:19:56;7.63;;;6.53;;
41077;SDS011;26823;42.662;23.352;2023-05-10T00:22:22;8.65;;;7.03;;
41077;SDS011;26823;42.662;23.352;2023-05-10T00:24:48;9.35;;;7.60;;
41077;SDS011;26823;42.662;23.352;2023-05-10T00:27:13;9.48;;;6.90;;
41077;SDS011;26823;42.662;23.352;2023-05-10T00:29:38;10.05;;;7.40;;
41077;SDS011;26823;42.662;23.352;2023-05-10T00:32:04;10.95;;;7.50;;
41077;SDS011;26823;42.662;23.352;2023-05-10T00:34:29;9.63;;;7.35;;
41077;SDS011;26823;42.662;23.352;2023-05-10T00:36:55;8.75;;;7.15;;
41077;SDS011;26823;42.662;23.352;2023-05-10T00:39:21;10.15;;;8.23;;
41077;SDS011;26823;42.662;23.352;2023-05-10T00:41:46;9.60;;;8.60;;
41077;SDS011;26823;42.662;23.352;2023-05-10T00:44:12;11.10;;;8.88;;
41077;SDS011;26823;42.662;23.352;2023-05-10T00:46:37;11.23;;;8.90;;
41077;SDS011;26823;42.662;23.352;2023-05-10T00:49:03;9.50;;;8.48;;
41077;SDS011;26823;42.662;23.352;2023-05-10T00:51:29;9.57;;;8.20;;
41077;SDS011;26823;42.662;23.352;2023-05-10T00:53:56;9.43;;;7.93;;
41077;SDS011;26823;42.662;23.352;2023-05-10T00:56:21;10.65;;;8.48;;
41077;SDS011;26823;42.662;23.352;2023-05-10T00:58:48;10.00;;;8.55;;
41077;SDS011;26823;42.662;23.352;2023-05-10T01:01:14;11.95;;;9.75;;
41077;SDS011;26823;42.662;23.352;2023-05-10T01:03:39;10.75;;;8.52;;
41077;SDS011;26823;42.662;23.352;2023-05-10T01:06:05;9.95;;;8.07;;
41077;SDS011;26823;42.662;23.352;2023-05-10T01:08:31;10.57;;;9.25;;
41077;SDS011;26823;42.662;23.352;2023-05-10T01:10:57;9.90;;;8.18;;
41077;SDS011;26823;42.662;23.352;2023-05-10T01:13:26;11.18;;;9.00;;
41077;SDS011;26823;42.662;23.352;2023-05-10T01:15:55;9.70;;;8.60;;
41077;SDS011;26823;42.662;23.352;2023-05-10T01:18:21;11.18;;;8.88;;
41077;SDS011;26823;42.662;23.352;2023-05-10T01:20:48;11.05;;;8.57;;
41077;SDS011;26823;42.662;23.352;2023-05-10T01:34:34;9.43;;;7.68;;
41077;SDS011;26823;42.662;23.352;2023-05-10T01:37:06;8.90;;;7.70;;
41077;SDS011;26823;42.662;23.352;2023-05-10T01:39:44;8.20;;;7.40;;
41077;SDS011;26823;42.662;23.352;2023-05-10T01:42:17;7.30;;;6.55;;
41077;SDS011;26823;42.662;23.352;2023-05-10T01:44:49;7.75;;;6.22;;
41077;SDS011;26823;42.662;23.352;2023-05-10T01:50:17;10.52;;;7.07;;
41077;SDS011;26823;42.662;23.352;2023-05-10T01:52:47;6.68;;;5.97;;
41077;SDS011;26823;42.662;23.352;2023-05-10T01:55:18;6.03;;;5.45;;
41077;SDS011;26823;42.662;23.352;2023-05-10T01:57:46;7.38;;;6.32;;
41077;SDS011;26823;42.662;23.352;2023-05-10T02:00:16;6.00;;;4.95;;
41077;SDS011;26823;42.662;23.352;2023-05-10T02:02:45;5.75;;;5.18;;
41077;SDS011;26823;42.662;23.352;2023-05-10T02:05:12;5.65;;;5.05;;
41077;SDS011;26823;42.662;23.352;2023-05-10T02:07:40;7.60;;;5.78;;
41077;SDS011;26823;42.662;23.352;2023-05-10T02:10:07;5.45;;;4.93;;
41077;SDS011;26823;42.662;23.352;2023-05-10T02:12:52;5.95;;;5.32;;
41077;SDS011;26823;42.662;23.352;2023-05-10T02:15:20;6.65;;;5.47;;
41077;SDS011;26823;42.662;23.352;2023-05-10T02:17:49;5.68;;;5.05;;
41077;SDS011;26823;42.662;23.352;2023-05-10T02:20:16;5.95;;;5.32;;
41077;SDS011;26823;42.662;23.352;2023-05-10T02:22:44;7.38;;;5.53;;
41077;SDS011;26823;42.662;23.352;2023-05-10T02:25:12;5.90;;;4.60;;
41077;SDS011;26823;42.662;23.352;2023-05-10T02:27:39;5.63;;;4.93;;
41077;SDS011;26823;42.662;23.352;2023-05-10T02:30:07;8.00;;;4.63;;
41077;SDS011;26823;42.662;23.352;2023-05-10T02:32:35;5.40;;;4.53;;
41077;SDS011;26823;42.662;23.352;2023-05-10T02:35:02;5.50;;;5.00;;
41077;SDS011;26823;42.662;23.352;2023-05-10T02:37:28;8.52;;;4.78;;
41077;SDS011;26823;42.662;23.352;2023-05-10T02:39:55;5.35;;;4.60;;
41077;SDS011;26823;42.662;23.352;2023-05-10T02:42:23;6.35;;;4.60;;
41077;SDS011;26823;42.662;23.352;2023-05-10T02:44:53;5.03;;;4.43;;
41077;SDS011;26823;42.662;23.352;2023-05-10T02:47:22;5.35;;;4.15;;
41077;SDS011;26823;42.662;23.352;2023-05-10T02:49:47;5.25;;;4.25;;
41077;SDS011;26823;42.662;23.352;2023-05-10T02:52:14;5.20;;;3.92;;
41077;SDS011;26823;42.662;23.352;2023-05-10T02:54:52;6.10;;;4.78;;
41077;SDS011;26823;42.662;23.352;2023-05-10T02:57:25;5.53;;;4.03;;
41077;SDS011;26823;42.662;23.352;2023-05-10T02:59:54;4.53;;;3.97;;
41077;SDS011;26823;42.662;23.352;2023-05-10T03:02:20;5.85;;;4.03;;
41077;SDS011;26823;42.662;23.352;2023-05-10T03:04:45;8.82;;;5.32;;
41077;SDS011;26823;42.662;23.352;2023-05-10T03:07:11;6.50;;;4.13;;
41077;SDS011;26823;42.662;23.352;2023-05-10T03:09:37;5.07;;;4.50;;
41077;SDS011;26823;42.662;23.352;2023-05-10T03:12:13;4.63;;;4.05;;
41077;SDS011;26823;42.662;23.352;2023-05-10T03:17:24;6.38;;;4.55;;
41077;SDS011;26823;42.662;23.352;2023-05-10T03:20:09;6.13;;;5.03;;
41077;SDS011;26823;42.662;23.352;2023-05-10T03:22:38;5.20;;;4.43;;
41077;SDS011;26823;42.662;23.352;2023-05-10T03:25:16;8.95;;;4.68;;
41077;SDS011;26823;42.662;23.352;2023-05-10T03:27:43;5.80;;;4.50;;
41077;SDS011;26823;42.662;23.352;2023-05-10T03:30:11;6.45;;;4.70;;
41077;SDS011;26823;42.662;23.352;2023-05-10T03:32:37;5.75;;;4.13;;
41077;SDS011;26823;42.662;23.352;2023-05-10T03:35:10;5.70;;;4.70;;
41077;SDS011;26823;42.662;23.352;2023-05-10T03:37:37;5.15;;;4.15;;
41077;SDS011;26823;42.662;23.352;2023-05-10T03:40:02;5.25;;;4.13;;
41077;SDS011;26823;42.662;23.352;2023-05-10T03:42:28;7.43;;;4.50;;
41077;SDS011;26823;42.662;23.352;2023-05-10T03:44:54;4.15;;;3.75;;
41077;SDS011;26823;42.662;23.352;2023-05-10T03:47:20;5.70;;;4.38;;
41077;SDS011;26823;42.662;23.352;2023-05-10T03:49:45;5.80;;;4.45;;
41077;SDS011;26823;42.662;23.352;2023-05-10T03:52:10;5.40;;;4.90;;
41077;SDS011;26823;42.662;23.352;2023-05-10T03:54:37;7.38;;;5.05;;
41077;SDS011;26823;42.662;23.352;2023-05-10T03:57:02;6.53;;;4.68;;
41077;SDS011;26823;42.662;23.352;2023-05-10T03:59:28;6.70;;;4.72;;
41077;SDS011;26823;42.662;23.352;2023-05-10T04:01:54;6.30;;;5.18;;
41077;SDS011;26823;42.662;23.352;2023-05-10T04:04:19;8.10;;;5.28;;
41077;SDS011;26823;42.662;23.352;2023-05-10T04:06:46;6.20;;;4.70;;
41077;SDS011;26823;42.662;23.352;2023-05-10T04:09:16;9.50;;;5.00;;
41077;SDS011;26823;42.662;23.352;2023-05-10T04:11:42;7.82;;;5.00;;
41077;SDS011;26823;42.662;23.352;2023-05-10T04:14:08;9.18;;;5.28;;
41077;SDS011;26823;42.662;23.352;2023-05-10T04:16:33;5.28;;;4.78;;
41077;SDS011;26823;42.662;23.352;2023-05-10T04:18:59;8.70;;;4.55;;
41077;SDS011;26823;42.662;23.352;2023-05-10T04:21:24;5.32;;;4.43;;
41077;SDS011;26823;42.662;23.352;2023-05-10T04:23:50;6.78;;;5.18;;
41077;SDS011;26823;42.662;23.352;2023-05-10T04:26:15;6.15;;;4.95;;
41077;SDS011;26823;42.662;23.352;2023-05-10T04:28:41;8.10;;;5.68;;
41077;SDS011;26823;42.662;23.352;2023-05-10T04:31:07;6.93;;;5.22;;
41077;SDS011;26823;42.662;23.352;2023-05-10T04:33:34;7.65;;;5.28;;
41077;SDS011;26823;42.662;23.352;2023-05-10T04:36:00;8.82;;;5.00;;
41077;SDS011;26823;42.662;23.352;2023-05-10T04:38:26;7.43;;;5.45;;
41077;SDS011;26823;42.662;23.352;2023-05-10T04:40:52;6.72;;;5.10;;
41077;SDS011;26823;42.662;23.352;2023-05-10T04:43:18;6.70;;;5.25;;
41077;SDS011;26823;42.662;23.352;2023-05-10T04:45:44;8.13;;;5.18;;
41077;SDS011;26823;42.662;23.352;2023-05-10T04:48:09;7.25;;;5.75;;
41077;SDS011;26823;42.662;23.352;2023-05-10T04:50:34;6.28;;;5.40;;
41077;SDS011;26823;42.662;23.352;2023-05-10T04:53:00;7.78;;;5.75;;
41077;SDS011;26823;42.662;23.352;2023-05-10T04:55:25;8.77;;;5.82;;
41077;SDS011;26823;42.662;23.352;2023-05-10T04:57:52;6.80;;;5.43;;
41077;SDS011;26823;42.662;23.352;2023-05-10T05:00:17;6.40;;;5.20;;
41077;SDS011;26823;42.662;23.352;2023-05-10T05:02:44;7.53;;;5.28;;
41077;SDS011;26823;42.662;23.352;2023-05-10T05:05:10;6.93;;;5.82;;
41077;SDS011;26823;42.662;23.352;2023-05-10T05:07:36;8.38;;;5.55;;
41077;SDS011;26823;42.662;23.352;2023-05-10T05:10:02;8.45;;;5.60;;
41077;SDS011;26823;42.662;23.352;2023-05-10T05:12:28;8.40;;;6.20;;
41077;SDS011;26823;42.662;23.352;2023-05-10T05:14:53;8.40;;;6.72;;
41077;SDS011;26823;42.662;23.352;2023-05-10T05:17:18;8.65;;;5.85;;
41077;SDS011;26823;42.662;23.352;2023-05-10T05:19:44;12.32;;;6.05;;
41077;SDS011;26823;42.662;23.352;2023-05-10T05:22:09;8.40;;;6.65;;
41077;SDS011;26823;42.662;23.352;2023-05-10T05:24:35;9.23;;;6.15;;
41077;SDS011;26823;42.662;23.352;2023-05-10T05:27:02;6.90;;;6.07;;
41077;SDS011;26823;42.662;23.352;2023-05-10T05:29:28;10.15;;;6.75;;
41077;SDS011;26823;42.662;23.352;2023-05-10T05:31:53;8.07;;;5.72;;
41077;SDS011;26823;42.662;23.352;2023-05-10T05:34:18;8.20;;;6.18;;
41077;SDS011;26823;42.662;23.352;2023-05-10T05:36:45;8.25;;;6.45;;
41077;SDS011;26823;42.662;23.352;2023-05-10T05:39:10;11.43;;;7.07;;
41077;SDS011;26823;42.662;23.352;2023-05-10T05:41:36;9.90;;;6.97;;
41077;SDS011;26823;42.662;23.352;2023-05-10T05:44:01;9.00;;;7.20;;
41077;SDS011;26823;42.662;23.352;2023-05-10T05:46:27;9.73;;;6.70;;
41077;SDS011;26823;42.662;23.352;2023-05-10T05:48:52;11.93;;;7.38;;
41077;SDS011;26823;42.662;23.352;2023-05-10T05:51:17;8.27;;;7.28;;
41077;SDS011;26823;42.662;23.352;2023-05-10T05:53:43;13.45;;;8.25;;
41077;SDS011;26823;42.662;23.352;2023-05-10T05:56:08;12.70;;;7.60;;
41077;SDS011;26823;42.662;23.352;2023-05-10T05:58:34;11.30;;;8.55;;
41077;SDS011;26823;42.662;23.352;2023-05-10T06:01:00;12.88;;;7.88;;
41077;SDS011;26823;42.662;23.352;2023-05-10T06:03:26;12.75;;;7.18;;
41077;SDS011;26823;42.662;23.352;2023-05-10T06:05:51;10.32;;;7.90;;
41077;SDS011;26823;42.662;23.352;2023-05-10T06:08:17;12.20;;;8.27;;
41077;SDS011;26823;42.662;23.352;2023-05-10T06:10:42;10.50;;;7.93;;
41077;SDS011;26823;42.662;23.352;2023-05-10T06:13:07;12.00;;;8.65;;
41077;SDS011;26823;42.662;23.352;2023-05-10T06:15:33;11.48;;;7.78;;
41077;SDS011;26823;42.662;23.352;2023-05-10T06:17:59;12.02;;;8.60;;
41077;SDS011;26823;42.662;23.352;2023-05-10T06:20:25;10.52;;;7.80;;
41077;SDS011;26823;42.662;23.352;2023-05-10T06:22:50;10.73;;;7.60;;
41077;SDS011;26823;42.662;23.352;2023-05-10T06:25:16;12.43;;;8.32;;
41077;SDS011;26823;42.662;23.352;2023-05-10T06:27:43;16.58;;;9.27;;
41077;SDS011;26823;42.662;23.352;2023-05-10T06:30:08;11.52;;;8.65;;
41077;SDS011;26823;42.662;23.352;2023-05-10T06:32:34;12.15;;;8.32;;
41077;SDS011;26823;42.662;23.352;2023-05-10T06:35:00;12.43;;;7.65;;
41077;SDS011;26823;42.662;23.352;2023-05-10T06:37:25;10.25;;;7.85;;
41077;SDS011;26823;42.662;23.352;2023-05-10T06:39:51;11.13;;;8.30;;
41077;SDS011;26823;42.662;23.352;2023-05-10T06:42:16;10.85;;;8.65;;
41077;SDS011;26823;42.662;23.352;2023-05-10T06:44:42;14.07;;;8.75;;
41077;SDS011;26823;42.662;23.352;2023-05-10T06:47:08;11.20;;;8.85;;
41077;SDS011;26823;42.662;23.352;2023-05-10T06:49:34;11.73;;;8.43;;
41077;SDS011;26823;42.662;23.352;2023-05-10T06:51:59;12.68;;;8.32;;
41077;SDS011;26823;42.662;23.352;2023-05-10T06:54:25;9.38;;;7.68;;
41077;SDS011;26823;42.662;23.352;2023-05-10T06:56:57;13.95;;;9.23;;
41077;SDS011;26823;42.662;23.352;2023-05-10T06:59:22;13.20;;;8.63;;
41077;SDS011;26823;42.662;23.352;2023-05-10T07:01:49;12.15;;;8.18;;
41077;SDS011;26823;42.662;23.352;2023-05-10T07:04:14;9.88;;;8.00;;
41077;SDS011;26823;42.662;23.352;2023-05-10T07:06:39;13.38;;;8.93;;
41077;SDS011;26823;42.662;23.352;2023-05-10T07:09:05;11.23;;;7.55;;
41077;SDS011;26823;42.662;23.352;2023-05-10T07:11:30;12.93;;;8.10;;
41077;SDS011;26823;42.662;23.352;2023-05-10T07:13:56;11.73;;;8.77;;
41077;SDS011;26823;42.662;23.352;2023-05-10T07:16:21;11.30;;;7.35;;
41077;SDS011;26823;42.662;23.352;2023-05-10T07:18:47;11.65;;;7.30;;
41077;SDS011;26823;42.662;23.352;2023-05-10T07:21:12;8.60;;;6.88;;
41077;SDS011;26823;42.662;23.352;2023-05-10T07:23:38;7.45;;;6.20;;
41077;SDS011;26823;42.662;23.352;2023-05-10T07:26:03;10.13;;;7.53;;
41077;SDS011;26823;42.662;23.352;2023-05-10T07:28:29;9.60;;;7.10;;
41077;SDS011;26823;42.662;23.352;2023-05-10T07:30:54;9.07;;;7.65;;
41077;SDS011;26823;42.662;23.352;2023-05-10T07:33:19;9.88;;;8.23;;
41077;SDS011;26823;42.662;23.352;2023-05-10T07:35:45;12.75;;;7.53;;
41077;SDS011;26823;42.662;23.352;2023-05-10T07:38:10;11.77;;;7.57;;
41077;SDS011;26823;42.662;23.352;2023-05-10T07:40:36;11.63;;;8.65;;
41077;SDS011;26823;42.662;23.352;2023-05-10T07:43:01;11.88;;;8.20;;
41077;SDS011;26823;42.662;23.352;2023-05-10T07:45:27;9.48;;;7.28;;
41077;SDS011;26823;42.662;23.352;2023-05-10T07:47:53;10.75;;;8.27;;
41077;SDS011;26823;42.662;23.352;2023-05-10T07:50:18;13.45;;;8.57;;
41077;SDS011;26823;42.662;23.352;2023-05-10T07:52:44;11.10;;;8.48;;
41077;SDS011;26823;42.662;23.352;2023-05-10T07:55:09;9.45;;;8.30;;
41077;SDS011;26823;42.662;23.352;2023-05-10T07:57:35;11.57;;;8.20;;
41077;SDS011;26823;42.662;23.352;2023-05-10T08:00:01;13.75;;;9.25;;
41077;SDS011;26823;42.662;23.352;2023-05-10T08:02:27;13.27;;;9.93;;
41077;SDS011;26823;42.662;23.352;2023-05-10T08:04:52;10.88;;;8.50;;
41077;SDS011;26823;42.662;23.352;2023-05-10T08:07:17;13.43;;;9.45;;
41077;SDS011;26823;42.662;23.352;2023-05-10T08:09:43;11.13;;;9.18;;
41077;SDS011;26823;42.662;23.352;2023-05-10T08:12:14;11.85;;;9.13;;
41077;SDS011;26823;42.662;23.352;2023-05-10T08:14:46;15.55;;;8.95;;
41077;SDS011;26823;42.662;23.352;2023-05-10T08:17:12;13.00;;;9.10;;
41077;SDS011;26823;42.662;23.352;2023-05-10T08:19:37;12.82;;;9.68;;
41077;SDS011;26823;42.662;23.352;2023-05-10T08:22:03;12.27;;;9.15;;
41077;SDS011;26823;42.662;23.352;2023-05-10T08:24:28;12.00;;;9.77;;
41077;SDS011;26823;42.662;23.352;2023-05-10T08:26:53;10.75;;;8.70;;
41077;SDS011;26823;42.662;23.352;2023-05-10T08:29:19;15.93;;;9.48;;
41077;SDS011;26823;42.662;23.352;2023-05-10T08:31:44;11.63;;;9.63;;
41077;SDS011;26823;42.662;23.352;2023-05-10T08:34:10;13.13;;;9.52;;
41077;SDS011;26823;42.662;23.352;2023-05-10T08:36:35;12.38;;;8.75;;
41077;SDS011;26823;42.662;23.352;2023-05-10T08:39:01;12.88;;;9.35;;
41077;SDS011;26823;42.662;23.352;2023-05-10T08:41:26;10.23;;;9.07;;
41077;SDS011;26823;42.662;23.352;2023-05-10T08:43:53;12.27;;;9.00;;
41077;SDS011;26823;42.662;23.352;2023-05-10T08:46:19;11.40;;;8.30;;
41077;SDS011;26823;42.662;23.352;2023-05-10T08:48:46;14.43;;;9.02;;
41077;SDS011;26823;42.662;23.352;2023-05-10T08:51:22;11.48;;;9.32;;
41077;SDS011;26823;42.662;23.352;2023-05-10T08:53:51;11.30;;;8.90;;
41077;SDS011;26823;42.662;23.352;2023-05-10T08:56:17;11.73;;;9.45;;
41077;SDS011;26823;42.662;23.352;2023-05-10T08:58:42;14.43;;;9.80;;
41077;SDS011;26823;42.662;23.352;2023-05-10T09:01:08;12.20;;;9.40;;
41077;SDS011;26823;42.662;23.352;2023-05-10T09:03:35;11.45;;;9.77;;
41077;SDS011;26823;42.662;23.352;2023-05-10T09:06:03;12.40;;;8.73;;
41077;SDS011;26823;42.662;23.352;2023-05-10T09:08:30;12.80;;;9.25;;
41077;SDS011;26823;42.662;23.352;2023-05-10T09:10:56;11.32;;;9.80;;
41077;SDS011;26823;42.662;23.352;2023-05-10T09:13:22;11.98;;;8.80;;
41077;SDS011;26823;42.662;23.352;2023-05-10T09:15:49;11.07;;;9.13;;
41077;SDS011;26823;42.662;23.352;2023-05-10T09:18:14;11.10;;;9.35;;
41077;SDS011;26823;42.662;23.352;2023-05-10T09:20:40;14.40;;;10.07;;
41077;SDS011;26823;42.662;23.352;2023-05-10T09:23:06;14.13;;;10.38;;
41077;SDS011;26823;42.662;23.352;2023-05-10T09:25:32;11.40;;;9.35;;
41077;SDS011;26823;42.662;23.352;2023-05-10T09:28:01;15.25;;;10.77;;
41077;SDS011;26823;42.662;23.352;2023-05-10T09:30:28;15.73;;;10.30;;
41077;SDS011;26823;42.662;23.352;2023-05-10T09:32:55;10.60;;;8.63;;
41077;SDS011;26823;42.662;23.352;2023-05-10T09:35:23;11.32;;;8.73;;
41077;SDS011;26823;42.662;23.352;2023-05-10T09:37:50;11.27;;;8.68;;
41077;SDS011;26823;42.662;23.352;2023-05-10T09:40:25;10.82;;;9.05;;
41077;SDS011;26823;42.662;23.352;2023-05-10T09:42:58;13.57;;;10.65;;
41077;SDS011;26823;42.662;23.352;2023-05-10T09:45:28;13.13;;;9.80;;
41077;SDS011;26823;42.662;23.352;2023-05-10T09:47:57;16.30;;;10.43;;
41077;SDS011;26823;42.662;23.352;2023-05-10T09:50:24;11.90;;;9.23;;
41077;SDS011;26823;42.662;23.352;2023-05-10T09:52:51;13.43;;;9.40;;
41077;SDS011;26823;42.662;23.352;2023-05-10T09:55:25;10.90;;;9.20;;
41077;SDS011;26823;42.662;23.352;2023-05-10T09:58:02;12.57;;;9.25;;
41077;SDS011;26823;42.662;23.352;2023-05-10T10:00:33;12.90;;;9.52;;
41077;SDS011;26823;42.662;23.352;2023-05-10T10:03:00;10.27;;;8.10;;
41077;SDS011;26823;42.662;23.352;2023-05-10T10:05:33;12.38;;;9.15;;
41077;SDS011;26823;42.662;23.352;2023-05-10T10:08:00;10.57;;;8.18;;
41077;SDS011;26823;42.662;23.352;2023-05-10T10:10:28;12.57;;;8.70;;
41077;SDS011;26823;42.662;23.352;2023-05-10T10:12:54;9.55;;;7.90;;
41077;SDS011;26823;42.662;23.352;2023-05-10T10:15:20;8.93;;;7.85;;
41077;SDS011;26823;42.662;23.352;2023-05-10T10:17:46;9.93;;;7.93;;
41077;SDS011;26823;42.662;23.352;2023-05-10T10:20:14;9.98;;;7.90;;
41077;SDS011;26823;42.662;23.352;2023-05-10T10:22:40;10.55;;;8.02;;
41077;SDS011;26823;42.662;23.352;2023-05-10T10:25:05;9.18;;;7.95;;
41077;SDS011;26823;42.662;23.352;2023-05-10T10:35:39;9.63;;;7.28;;
41077;SDS011;26823;42.662;23.352;2023-05-10T10:38:07;8.65;;;7.05;;
41077;SDS011;26823;42.662;23.352;2023-05-10T10:40:33;8.32;;;6.78;;
41077;SDS011;26823;42.662;23.352;2023-05-10T10:43:20;7.60;;;6.82;;
41077;SDS011;26823;42.662;23.352;2023-05-10T10:48:36;12.18;;;7.05;;
41077;SDS011;26823;42.662;23.352;2023-05-10T10:51:11;9.85;;;7.57;;
41077;SDS011;26823;42.662;23.352;2023-05-10T10:53:39;7.88;;;6.22;;
41077;SDS011;26823;42.662;23.352;2023-05-10T10:56:12;7.18;;;5.75;;
41077;SDS011;26823;42.662;23.352;2023-05-10T10:58:40;11.68;;;7.20;;
41077;SDS011;26823;42.662;23.352;2023-05-10T11:01:18;10.32;;;6.65;;
41077;SDS011;26823;42.662;23.352;2023-05-10T11:06:28;8.27;;;6.65;;
41077;SDS011;26823;42.662;23.352;2023-05-10T11:08:54;8.27;;;5.45;;
41077;SDS011;26823;42.662;23.352;2023-05-10T11:11:20;8.75;;;6.32;;
41077;SDS011;26823;42.662;23.352;2023-05-10T11:13:47;7.32;;;6.53;;
41077;SDS011;26823;42.662;23.352;2023-05-10T11:21:30;11.90;;;6.85;;
41077;SDS011;26823;42.662;23.352;2023-05-10T11:23:57;7.82;;;6.68;;
41077;SDS011;26823;42.662;23.352;2023-05-10T11:26:29;8.93;;;6.75;;
41077;SDS011;26823;42.662;23.352;2023-05-10T11:28:56;10.55;;;6.82;;
41077;SDS011;26823;42.662;23.352;2023-05-10T11:31:22;10.07;;;6.45;;
41077;SDS011;26823;42.662;23.352;2023-05-10T11:33:52;11.57;;;6.88;;
41077;SDS011;26823;42.662;23.352;2023-05-10T11:36:28;10.73;;;7.07;;
41077;SDS011;26823;42.662;23.352;2023-05-10T11:38:58;9.43;;;6.53;;
41077;SDS011;26823;42.662;23.352;2023-05-10T11:41:24;8.25;;;6.78;;
41077;SDS011;26823;42.662;23.352;2023-05-10T11:43:50;11.35;;;8.25;;
41077;SDS011;26823;42.662;23.352;2023-05-10T11:46:18;10.23;;;6.97;;
41077;SDS011;26823;42.662;23.352;2023-05-10T11:48:45;10.85;;;7.15;;
41077;SDS011;26823;42.662;23.352;2023-05-10T11:51:12;9.50;;;6.53;;
41077;SDS011;26823;42.662;23.352;2023-05-10T11:53:37;8.68;;;6.53;;
41077;SDS011;26823;42.662;23.352;2023-05-10T11:56:12;10.15;;;6.68;;
41077;SDS011;26823;42.662;23.352;2023-05-10T11:58:38;9.55;;;7.47;;
41077;SDS011;26823;42.662;23.352;2023-05-10T12:01:06;11.45;;;7.35;;
41077;SDS011;26823;42.662;23.352;2023-05-10T12:03:32;8.95;;;7.45;;
41077;SDS011;26823;42.662;23.352;2023-05-10T12:05:59;9.63;;;6.75;;
41077;SDS011;26823;42.662;23.352;2023-05-10T12:08:26;10.27;;;7.60;;
41077;SDS011;26823;42.662;23.352;2023-05-10T12:11:13;10.02;;;7.40;;
41077;SDS011;26823;42.662;23.352;2023-05-10T12:13:42;12.93;;;8.20;;
41077;SDS011;26823;42.662;23.352;2023-05-10T12:16:12;11.07;;;8.02;;
41077;SDS011;26823;42.662;23.352;2023-05-10T12:18:42;10.95;;;8.00;;
41077;SDS011;26823;42.662;23.352;2023-05-10T12:21:09;10.00;;;7.28;;
41077;SDS011;26823;42.662;23.352;2023-05-10T12:23:36;11.77;;;8.07;;
41077;SDS011;26823;42.662;23.352;2023-05-10T12:26:02;9.77;;;7.35;;
41077;SDS011;26823;42.662;23.352;2023-05-10T12:28:31;8.77;;;6.78;;
41077;SDS011;26823;42.662;23.352;2023-05-10T12:30:58;10.65;;;8.48;;
41077;SDS011;26823;42.662;23.352;2023-05-10T12:33:24;10.60;;;7.65;;
41077;SDS011;26823;42.662;23.352;2023-05-10T12:35:51;10.77;;;7.57;;
41077;SDS011;26823;42.662;23.352;2023-05-10T12:38:34;11.93;;;7.95;;
41077;SDS011;26823;42.662;23.352;2023-05-10T12:41:13;10.35;;;8.13;;
41077;SDS011;26823;42.662;23.352;2023-05-10T12:43:39;9.23;;;7.32;;
41077;SDS011;26823;42.662;23.352;2023-05-10T12:46:12;9.63;;;6.60;;
41077;SDS011;26823;42.662;23.352;2023-05-10T12:48:40;10.98;;;7.22;;
41077;SDS011;26823;42.662;23.352;2023-05-10T12:51:06;7.65;;;6.35;;
41077;SDS011;26823;42.662;23.352;2023-05-10T12:53:38;9.15;;;6.75;;
41077;SDS011;26823;42.662;23.352;2023-05-10T12:56:04;11.32;;;7.68;;
41077;SDS011;26823;42.662;23.352;2023-05-10T12:58:30;11.25;;;7.03;;
41077;SDS011;26823;42.662;23.352;2023-05-10T13:00:55;13.00;;;7.13;;
41077;SDS011;26823;42.662;23.352;2023-05-10T13:03:21;9.10;;;7.20;;
41077;SDS011;26823;42.662;23.352;2023-05-10T13:05:47;8.13;;;6.45;;
41077;SDS011;26823;42.662;23.352;2023-05-10T13:08:12;10.00;;;6.57;;
41077;SDS011;26823;42.662;23.352;2023-05-10T13:10:38;8.60;;;6.45;;
41077;SDS011;26823;42.662;23.352;2023-05-10T13:13:03;9.93;;;7.07;;
41077;SDS011;26823;42.662;23.352;2023-05-10T13:15:30;9.43;;;5.93;;
41077;SDS011;26823;42.662;23.352;2023-05-10T13:17:55;8.65;;;6.55;;
41077;SDS011;26823;42.662;23.352;2023-05-10T13:20:21;10.70;;;5.70;;
41077;SDS011;26823;42.662;23.352;2023-05-10T13:22:47;14.32;;;6.38;;
41077;SDS011;26823;42.662;23.352;2023-05-10T13:25:12;8.18;;;6.28;;
41077;SDS011;26823;42.662;23.352;2023-05-10T13:27:40;9.02;;;6.32;;
41077;SDS011;26823;42.662;23.352;2023-05-10T13:30:06;13.43;;;6.75;;
41077;SDS011;26823;42.662;23.352;2023-05-10T13:32:36;10.35;;;6.25;;
41077;SDS011;26823;42.662;23.352;2023-05-10T13:35:01;13.65;;;7.60;;
41077;SDS011;26823;42.662;23.352;2023-05-10T13:37:28;9.30;;;6.85;;
41077;SDS011;26823;42.662;23.352;2023-05-10T13:39:54;11.63;;;7.00;;
41077;SDS011;26823;42.662;23.352;2023-05-10T13:42:21;9.43;;;6.80;;
41077;SDS011;26823;42.662;23.352;2023-05-10T13:44:47;6.63;;;5.93;;
41077;SDS011;26823;42.662;23.352;2023-05-10T13:47:13;9.27;;;6.47;;
41077;SDS011;26823;42.662;23.352;2023-05-10T13:49:38;8.55;;;6.45;;
41077;SDS011;26823;42.662;23.352;2023-05-10T13:52:04;8.32;;;6.47;;
41077;SDS011;26823;42.662;23.352;2023-05-10T13:54:32;6.72;;;5.18;;
41077;SDS011;26823;42.662;23.352;2023-05-10T13:56:58;8.27;;;6.30;;
41077;SDS011;26823;42.662;23.352;2023-05-10T13:59:24;8.95;;;6.18;;
41077;SDS011;26823;42.662;23.352;2023-05-10T14:01:49;7.85;;;6.40;;
41077;SDS011;26823;42.662;23.352;2023-05-10T14:04:15;10.90;;;7.32;;
41077;SDS011;26823;42.662;23.352;2023-05-10T14:06:40;9.38;;;7.95;;
41077;SDS011;26823;42.662;23.352;2023-05-10T14:09:05;8.75;;;6.43;;
41077;SDS011;26823;42.662;23.352;2023-05-10T14:11:31;12.00;;;6.70;;
41077;SDS011;26823;42.662;23.352;2023-05-10T14:13:56;6.95;;;5.90;;
41077;SDS011;26823;42.662;23.352;2023-05-10T14:16:22;7.28;;;6.20;;
41077;SDS011;26823;42.662;23.352;2023-05-10T14:18:47;6.57;;;5.20;;
41077;SDS011;26823;42.662;23.352;2023-05-10T14:21:12;7.85;;;6.07;;
41077;SDS011;26823;42.662;23.352;2023-05-10T14:23:38;8.48;;;6.60;;
41077;SDS011;26823;42.662;23.352;2023-05-10T14:26:03;7.97;;;6.05;;
41077;SDS011;26823;42.662;23.352;2023-05-10T14:28:29;9.40;;;6.88;;
41077;SDS011;26823;42.662;23.352;2023-05-10T14:30:54;10.40;;;6.40;;
41077;SDS011;26823;42.662;23.352;2023-05-10T14:33:20;10.30;;;7.35;;
41077;SDS011;26823;42.662;23.352;2023-05-10T14:35:46;11.52;;;7.10;;
41077;SDS011;26823;42.662;23.352;2023-05-10T14:38:12;11.93;;;7.47;;
41077;SDS011;26823;42.662;23.352;2023-05-10T14:40:38;9.90;;;7.03;;
41077;SDS011;26823;42.662;23.352;2023-05-10T14:43:03;7.50;;;6.35;;
41077;SDS011;26823;42.662;23.352;2023-05-10T14:45:29;9.38;;;7.40;;
41077;SDS011;26823;42.662;23.352;2023-05-10T14:47:54;10.43;;;6.47;;
41077;SDS011;26823;42.662;23.352;2023-05-10T14:50:20;10.77;;;6.57;;
41077;SDS011;26823;42.662;23.352;2023-05-10T14:52:45;10.18;;;6.75;;
41077;SDS011;26823;42.662;23.352;2023-05-10T14:55:11;7.82;;;6.75;;
41077;SDS011;26823;42.662;23.352;2023-05-10T14:57:42;9.32;;;7.00;;
41077;SDS011;26823;42.662;23.352;2023-05-10T15:00:09;10.25;;;7.13;;
41077;SDS011;26823;42.662;23.352;2023-05-10T15:02:35;11.57;;;7.50;;